createdAt,value
2023-02-11T00:00:07.920Z,20.50
2023-02-11T00:00:40.587Z,21.00
2023-02-11T00:01:13.248Z,20.50
2023-02-11T00:01:45.916Z,20.30
2023-02-11T00:02:18.681Z,20.10
2023-02-11T00:02:51.344Z,21.20
2023-02-11T00:03:24.151Z,20.40
2023-02-11T00:03:56.820Z,20.30
2023-02-11T00:04:29.527Z,20.00
2023-02-11T00:05:02.227Z,20.20
2023-02-11T00:05:34.884Z,20.60
2023-02-11T00:06:07.559Z,21.40
2023-02-11T00:06:40.257Z,20.20
2023-02-11T00:07:12.913Z,20.00
2023-02-11T00:07:45.581Z,20.00
2023-02-11T00:08:18.250Z,21.10
2023-02-11T00:08:50.924Z,20.00
2023-02-11T00:09:23.597Z,20.20
2023-02-11T00:09:56.295Z,20.70
2023-02-11T00:10:28.952Z,20.30
2023-02-11T00:11:01.622Z,21.00
2023-02-11T00:11:34.284Z,20.80
2023-02-11T00:12:06.957Z,20.20
2023-02-11T00:12:39.832Z,20.20
2023-02-11T00:13:12.504Z,21.00
2023-02-11T00:13:45.182Z,20.90
2023-02-11T00:14:17.845Z,20.90
2023-02-11T00:14:50.551Z,21.10
2023-02-11T00:15:23.221Z,19.80
2023-02-11T00:15:55.897Z,20.60
2023-02-11T00:16:28.655Z,20.90
2023-02-11T00:17:01.339Z,20.50
2023-02-11T00:17:34.020Z,20.30
2023-02-11T00:18:06.677Z,21.00
2023-02-11T00:18:39.351Z,21.00
2023-02-11T00:19:12.032Z,20.90
2023-02-11T00:19:44.712Z,21.20
2023-02-11T00:20:17.374Z,21.00
2023-02-11T00:20:50.057Z,20.20
2023-02-11T00:21:22.740Z,21.40
2023-02-11T00:21:55.428Z,20.30
2023-02-11T00:22:28.101Z,21.30
2023-02-11T00:23:00.785Z,20.10
2023-02-11T00:23:33.452Z,20.80
2023-02-11T00:24:06.125Z,21.20
2023-02-11T00:24:38.803Z,20.30
2023-02-11T00:25:11.530Z,21.10
2023-02-11T00:25:44.187Z,21.00
2023-02-11T00:26:16.842Z,21.30
2023-02-11T00:26:49.510Z,21.70
2023-02-11T00:27:22.186Z,21.30
2023-02-11T00:27:54.882Z,20.90
2023-02-11T00:28:27.663Z,20.20
2023-02-11T00:29:00.313Z,21.20
2023-02-11T00:29:32.980Z,20.70
2023-02-11T00:30:05.668Z,20.80
2023-02-11T00:30:38.514Z,20.30
2023-02-11T00:31:11.363Z,20.40
2023-02-11T00:31:44.316Z,21.40
2023-02-11T00:32:17.021Z,20.60
2023-02-11T00:32:49.706Z,21.00
2023-02-11T00:33:22.360Z,20.80
2023-02-11T00:33:55.043Z,21.00
2023-02-11T00:34:27.707Z,21.20
2023-02-11T00:35:00.410Z,21.60
2023-02-11T00:35:33.070Z,21.10
2023-02-11T00:36:05.752Z,21.50
2023-02-11T00:36:38.392Z,21.00
2023-02-11T00:37:11.087Z,20.80
2023-02-11T00:37:43.777Z,21.20
2023-02-11T00:38:16.459Z,20.80
2023-02-11T00:38:49.129Z,21.00
2023-02-11T00:39:21.805Z,21.50
2023-02-11T00:39:54.485Z,20.70
2023-02-11T00:40:27.194Z,20.50
2023-02-11T00:40:59.859Z,20.60
2023-02-11T00:41:32.538Z,20.80
2023-02-11T00:42:05.216Z,20.60
2023-02-11T00:42:37.886Z,20.10
2023-02-11T00:43:10.563Z,21.20
2023-02-11T00:43:43.227Z,21.40
2023-02-11T00:44:15.901Z,21.60
2023-02-11T00:44:48.588Z,20.70
2023-02-11T00:45:21.396Z,20.90
2023-02-11T00:45:54.129Z,21.20
2023-02-11T00:46:26.930Z,20.70
2023-02-11T00:46:59.590Z,20.70
2023-02-11T00:47:32.259Z,20.50
2023-02-11T00:48:04.930Z,20.70
2023-02-11T00:48:37.615Z,20.80
2023-02-11T00:49:10.279Z,20.90
2023-02-11T00:49:42.969Z,20.00
2023-02-11T00:50:14.098Z,20.30
2023-02-11T00:50:46.751Z,21.40
2023-02-11T00:51:19.424Z,20.60
2023-02-11T00:51:52.093Z,21.40
2023-02-11T00:52:24.765Z,20.50
2023-02-11T00:52:57.429Z,21.20
2023-02-11T00:53:30.093Z,20.70
2023-02-11T00:54:02.763Z,21.00
2023-02-11T00:54:35.432Z,21.40
2023-02-11T00:55:08.108Z,20.80
2023-02-11T00:55:40.776Z,20.90
2023-02-11T00:56:13.457Z,20.00
2023-02-11T00:56:46.132Z,20.90
2023-02-11T00:57:18.815Z,21.50
2023-02-11T00:57:51.478Z,20.70
2023-02-11T00:58:24.162Z,21.20
2023-02-11T00:58:56.832Z,20.60
2023-02-11T00:59:29.510Z,20.50
2023-02-11T01:00:02.187Z,20.80
2023-02-11T01:00:34.869Z,20.80
2023-02-11T01:01:07.633Z,20.30
2023-02-11T01:01:40.343Z,20.60
2023-02-11T01:02:13.007Z,21.80
2023-02-11T01:02:45.675Z,21.20
2023-02-11T01:03:18.367Z,20.60
2023-02-11T01:03:51.054Z,21.80
2023-02-11T01:04:23.724Z,21.20
2023-02-11T01:04:56.492Z,21.40
2023-02-11T01:05:29.282Z,21.40
2023-02-11T01:06:01.922Z,20.90
2023-02-11T01:06:34.587Z,20.90
2023-02-11T01:07:07.256Z,21.40
2023-02-11T01:07:39.919Z,21.10
2023-02-11T01:08:12.582Z,21.00
2023-02-11T01:08:45.277Z,21.20
2023-02-11T01:09:17.924Z,20.80
2023-02-11T01:09:50.598Z,21.30
2023-02-11T01:10:23.297Z,21.80
2023-02-11T01:10:55.952Z,21.00
2023-02-11T01:11:28.641Z,21.50
2023-02-11T01:12:01.306Z,21.50
2023-02-11T01:12:36.251Z,21.60
2023-02-11T01:13:02.692Z,21.40
2023-02-11T01:13:35.353Z,21.00
2023-02-11T01:14:08.030Z,21.50
2023-02-11T01:14:40.702Z,21.40
2023-02-11T01:15:13.382Z,21.70
2023-02-11T01:15:46.131Z,21.00
2023-02-11T01:16:18.961Z,20.50
2023-02-11T01:16:51.646Z,21.80
2023-02-11T01:17:24.375Z,21.20
2023-02-11T01:17:57.011Z,21.80
2023-02-11T01:18:29.679Z,21.50
2023-02-11T01:19:02.356Z,20.90
2023-02-11T01:19:35.039Z,21.20
2023-02-11T01:20:07.701Z,21.10
2023-02-11T01:20:40.408Z,21.70
2023-02-11T01:21:13.077Z,21.80
2023-02-11T01:21:45.719Z,21.60
2023-02-11T01:22:18.384Z,21.70
2023-02-11T01:22:51.058Z,21.00
2023-02-11T01:23:23.734Z,21.50
2023-02-11T01:23:56.405Z,21.90
2023-02-11T01:24:29.086Z,21.20
2023-02-11T01:25:01.743Z,21.60
2023-02-11T01:25:34.418Z,20.70
2023-02-11T01:26:07.091Z,21.60
2023-02-11T01:26:39.773Z,21.10
2023-02-11T01:27:12.430Z,21.20
2023-02-11T01:27:45.096Z,21.90
2023-02-11T01:28:17.837Z,21.90
2023-02-11T01:28:50.515Z,20.80
2023-02-11T01:29:23.187Z,21.50
2023-02-11T01:29:55.855Z,22.00
2023-02-11T01:30:28.548Z,22.10
2023-02-11T01:31:01.281Z,21.30
2023-02-11T01:31:34.103Z,21.60
2023-02-11T01:32:06.839Z,21.70
2023-02-11T01:32:39.523Z,21.70
2023-02-11T01:33:12.188Z,22.40
2023-02-11T01:33:44.878Z,22.00
2023-02-11T01:34:17.549Z,22.80
2023-02-11T01:34:50.238Z,21.90
2023-02-11T01:35:22.918Z,21.40
2023-02-11T01:35:55.628Z,21.40
2023-02-11T01:36:28.289Z,22.10
2023-02-11T01:37:00.992Z,21.90
2023-02-11T01:37:33.681Z,21.90
2023-02-11T01:38:06.352Z,22.00
2023-02-11T01:38:39.024Z,21.90
2023-02-11T01:39:11.684Z,22.30
2023-02-11T01:39:39.511Z,22.70
2023-02-11T01:40:07.191Z,21.60
2023-02-11T01:40:37.194Z,22.20
2023-02-11T01:41:14.724Z,22.00
2023-02-11T01:41:35.330Z,22.20
2023-02-11T01:42:07.997Z,22.00
2023-02-11T01:42:40.671Z,21.50
2023-02-11T01:43:09.124Z,21.80
2023-02-11T01:43:43.203Z,21.90
2023-02-11T01:44:10.193Z,21.40
2023-02-11T01:44:36.424Z,21.90
2023-02-11T01:45:09.100Z,21.90
2023-02-11T01:45:37.210Z,21.00
2023-02-11T01:46:04.361Z,22.20
2023-02-11T01:46:31.866Z,21.30
2023-02-11T01:47:04.553Z,22.20
2023-02-11T01:47:38.219Z,21.60
2023-02-11T01:48:05.348Z,21.40
2023-02-11T01:48:38.034Z,21.60
2023-02-11T01:49:05.336Z,21.80
2023-02-11T01:49:38.158Z,22.30
2023-02-11T01:50:06.979Z,22.20
2023-02-11T01:50:35.742Z,21.30
2023-02-11T01:51:04.221Z,21.30
2023-02-11T01:51:30.359Z,21.30
2023-02-11T01:52:03.693Z,20.70
2023-02-11T01:52:29.899Z,21.90
2023-02-11T01:53:02.570Z,21.60
2023-02-11T01:53:35.229Z,21.20
2023-02-11T01:54:07.905Z,21.30
2023-02-11T01:54:40.564Z,21.80
2023-02-11T01:55:13.243Z,21.40
2023-02-11T01:55:45.924Z,20.40
2023-02-11T01:56:18.623Z,20.50
2023-02-11T01:56:51.310Z,21.50
2023-02-11T01:57:23.980Z,21.90
2023-02-11T01:57:56.662Z,21.40
2023-02-11T01:58:29.344Z,21.00
2023-02-11T01:59:01.993Z,22.20
2023-02-11T01:59:34.669Z,20.80
2023-02-11T02:00:07.322Z,21.20
2023-02-11T02:00:39.997Z,21.90
2023-02-11T02:01:12.724Z,21.30
2023-02-11T02:01:45.424Z,21.80
2023-02-11T02:02:16.493Z,21.40
2023-02-11T02:02:49.173Z,21.80
2023-02-11T02:03:21.858Z,21.40
2023-02-11T02:03:54.635Z,21.00
2023-02-11T02:04:27.280Z,21.30
2023-02-11T02:04:59.943Z,22.00
2023-02-11T02:05:32.622Z,20.80
2023-02-11T02:06:05.302Z,21.00
2023-02-11T02:06:37.984Z,21.70
2023-02-11T02:07:10.643Z,20.70
2023-02-11T02:07:43.321Z,21.70
2023-02-11T02:08:15.988Z,21.70
2023-02-11T02:08:48.662Z,21.50
2023-02-11T02:09:21.336Z,20.80
2023-02-11T02:09:54.005Z,21.10
2023-02-11T02:10:26.680Z,21.70
2023-02-11T02:10:59.366Z,21.30
2023-02-11T02:11:32.035Z,21.50
2023-02-11T02:12:04.718Z,21.70
2023-02-11T02:12:37.426Z,21.40
2023-02-11T02:13:10.090Z,20.60
2023-02-11T02:13:42.768Z,21.70
2023-02-11T02:14:15.450Z,21.60
2023-02-11T02:14:48.131Z,21.20
2023-02-11T02:15:20.799Z,21.10
2023-02-11T02:15:53.820Z,21.80
2023-02-11T02:16:24.581Z,21.50
2023-02-11T02:16:57.223Z,21.40
2023-02-11T02:17:29.926Z,21.20
2023-02-11T02:18:02.595Z,20.70
2023-02-11T02:18:35.259Z,21.40
2023-02-11T02:19:07.943Z,22.00
2023-02-11T02:19:40.604Z,21.10
2023-02-11T02:20:13.259Z,21.60
2023-02-11T02:20:45.932Z,21.60
2023-02-11T02:21:18.617Z,20.60
2023-02-11T02:21:51.312Z,21.90
2023-02-11T02:22:23.959Z,20.80
2023-02-11T02:22:56.643Z,22.10
2023-02-11T02:23:29.319Z,21.80
2023-02-11T02:24:01.980Z,21.60
2023-02-11T02:24:34.655Z,21.20
2023-02-11T02:25:07.310Z,21.20
2023-02-11T02:25:39.990Z,21.80
2023-02-11T02:26:12.656Z,21.10
2023-02-11T02:26:45.359Z,22.20
2023-02-11T02:27:18.022Z,21.90
2023-02-11T02:27:50.686Z,21.20
2023-02-11T02:28:23.391Z,21.20
2023-02-11T02:28:56.055Z,21.20
2023-02-11T02:29:28.729Z,21.20
2023-02-11T02:30:01.402Z,21.80
2023-02-11T02:30:34.104Z,22.30
2023-02-11T02:31:06.876Z,20.90
2023-02-11T02:31:39.578Z,20.50
2023-02-11T02:32:12.234Z,21.80
2023-02-11T02:32:44.917Z,21.80
2023-02-11T02:33:23.515Z,21.90
2023-02-11T02:33:49.696Z,21.20
2023-02-11T02:34:15.864Z,21.70
2023-02-11T02:34:48.530Z,21.90
2023-02-11T02:35:21.199Z,21.80
2023-02-11T02:35:53.865Z,22.00
2023-02-11T02:36:26.530Z,21.60
2023-02-11T02:36:59.214Z,22.10
2023-02-11T02:37:31.856Z,21.70
2023-02-11T02:38:04.529Z,20.90
2023-02-11T02:38:37.208Z,21.90
2023-02-11T02:39:09.875Z,21.30
2023-02-11T02:39:42.548Z,21.70
2023-02-11T02:40:15.244Z,21.30
2023-02-11T02:40:47.945Z,22.20
2023-02-11T02:41:20.573Z,22.00
2023-02-11T02:41:53.243Z,22.10
2023-02-11T02:42:25.909Z,21.70
2023-02-11T02:42:58.577Z,22.00
2023-02-11T02:43:31.251Z,21.90
2023-02-11T02:44:03.939Z,22.10
2023-02-11T02:44:35.031Z,21.10
2023-02-11T02:45:07.706Z,21.60
2023-02-11T02:45:40.377Z,22.30
2023-02-11T02:46:13.107Z,21.10
2023-02-11T02:46:45.815Z,21.50
2023-02-11T02:47:18.475Z,21.50
2023-02-11T02:47:51.151Z,21.90
2023-02-11T02:48:23.833Z,22.20
2023-02-11T02:48:56.515Z,21.90
2023-02-11T02:49:29.185Z,21.90
2023-02-11T02:50:01.875Z,21.70
2023-02-11T02:50:34.572Z,22.20
2023-02-11T02:51:05.647Z,22.00
2023-02-11T02:51:38.313Z,21.30
2023-02-11T02:52:11.022Z,22.20
2023-02-11T02:52:43.659Z,21.50
2023-02-11T02:53:16.337Z,22.70
2023-02-11T02:53:49.043Z,22.20
2023-02-11T02:54:21.690Z,21.90
2023-02-11T02:54:54.355Z,22.00
2023-02-11T02:55:27.031Z,21.20
2023-02-11T02:55:59.712Z,22.50
2023-02-11T02:56:32.387Z,21.60
2023-02-11T02:57:05.181Z,22.30
2023-02-11T02:57:37.854Z,22.30
2023-02-11T02:58:10.508Z,21.50
2023-02-11T02:58:45.405Z,22.10
2023-02-11T02:59:13.185Z,23.10
2023-02-11T02:59:45.860Z,22.70
2023-02-11T03:00:18.519Z,22.00
2023-02-11T03:00:51.205Z,22.10
2023-02-11T03:01:23.854Z,22.20
2023-02-11T03:01:56.531Z,21.60
2023-02-11T03:02:29.197Z,22.50
2023-02-11T03:03:01.877Z,22.30
2023-02-11T03:03:34.616Z,21.50
2023-02-11T03:04:07.394Z,22.30
2023-02-11T03:04:40.032Z,22.50
2023-02-11T03:05:12.707Z,21.80
2023-02-11T03:05:45.393Z,22.20
2023-02-11T03:06:18.106Z,21.70
2023-02-11T03:06:50.763Z,22.00
2023-02-11T03:07:23.472Z,21.80
2023-02-11T03:07:56.127Z,22.10
2023-02-11T03:08:28.792Z,22.00
2023-02-11T03:09:01.467Z,22.20
2023-02-11T03:09:34.137Z,22.70
2023-02-11T03:10:06.806Z,22.40
2023-02-11T03:10:39.482Z,22.60
2023-02-11T03:11:12.153Z,22.30
2023-02-11T03:11:44.807Z,22.60
2023-02-11T03:12:17.481Z,22.00
2023-02-11T03:12:50.138Z,22.20
2023-02-11T03:13:22.808Z,23.10
2023-02-11T03:13:55.475Z,22.60
2023-02-11T03:14:28.147Z,22.10
2023-02-11T03:15:00.837Z,23.10
2023-02-11T03:15:33.492Z,21.90
2023-02-11T03:16:06.250Z,22.50
2023-02-11T03:16:39.374Z,22.80
2023-02-11T03:17:12.094Z,22.10
2023-02-11T03:17:44.761Z,22.80
2023-02-11T03:18:17.468Z,22.00
2023-02-11T03:18:50.133Z,22.70
2023-02-11T03:19:22.798Z,23.00
2023-02-11T03:19:55.488Z,23.20
2023-02-11T03:20:28.154Z,22.70
2023-02-11T03:21:00.814Z,23.20
2023-02-11T03:21:33.487Z,22.60
2023-02-11T03:22:06.151Z,22.30
2023-02-11T03:22:38.837Z,22.80
2023-02-11T03:23:11.495Z,22.40
2023-02-11T03:23:44.159Z,22.60
2023-02-11T03:24:16.840Z,22.30
2023-02-11T03:24:49.515Z,22.60
2023-02-11T03:25:22.203Z,22.80
2023-02-11T03:25:54.893Z,23.00
2023-02-11T03:26:27.601Z,22.60
2023-02-11T03:27:00.247Z,23.00
2023-02-11T03:27:33.156Z,23.20
2023-02-11T03:28:05.890Z,21.80
2023-02-11T03:28:38.606Z,23.50
2023-02-11T03:29:11.301Z,22.70
2023-02-11T03:29:43.973Z,23.10
2023-02-11T03:30:16.663Z,22.40
2023-02-11T03:30:49.367Z,23.10
2023-02-11T03:31:22.239Z,22.90
2023-02-11T03:31:54.996Z,23.20
2023-02-11T03:32:27.648Z,21.90
2023-02-11T03:33:00.315Z,23.10
2023-02-11T03:33:32.979Z,22.60
2023-02-11T03:34:05.665Z,22.70
2023-02-11T03:34:38.326Z,22.90
2023-02-11T03:35:11.011Z,22.90
2023-02-11T03:35:43.667Z,22.40
2023-02-11T03:36:16.347Z,22.80
2023-02-11T03:36:49.008Z,23.30
2023-02-11T03:37:21.697Z,23.20
2023-02-11T03:37:54.585Z,23.30
2023-02-11T03:38:27.239Z,22.40
2023-02-11T03:38:59.948Z,22.30
2023-02-11T03:39:32.613Z,22.50
2023-02-11T03:40:05.289Z,22.80
2023-02-11T03:40:38.017Z,22.60
2023-02-11T03:41:10.676Z,23.30
2023-02-11T03:41:43.356Z,23.40
2023-02-11T03:42:16.019Z,22.50
2023-02-11T03:42:48.692Z,23.80
2023-02-11T03:43:21.362Z,23.00
2023-02-11T03:43:54.051Z,23.40
2023-02-11T03:44:26.729Z,22.80
2023-02-11T03:44:59.407Z,22.90
2023-02-11T03:45:32.152Z,22.90
2023-02-11T03:46:04.872Z,23.70
2023-02-11T03:46:37.577Z,23.10
2023-02-11T03:47:10.245Z,23.10
2023-02-11T03:47:42.913Z,23.10
2023-02-11T03:48:15.583Z,23.60
2023-02-11T03:48:48.252Z,22.30
2023-02-11T03:49:20.906Z,22.80
2023-02-11T03:49:53.584Z,23.80
2023-02-11T03:50:26.244Z,23.00
2023-02-11T03:50:58.933Z,24.10
2023-02-11T03:51:31.592Z,23.70
2023-02-11T03:52:04.264Z,24.10
2023-02-11T03:52:36.934Z,23.00
2023-02-11T03:53:09.629Z,22.90
2023-02-11T03:53:42.297Z,23.70
2023-02-11T03:54:14.950Z,23.90
2023-02-11T03:54:47.622Z,24.10
2023-02-11T03:55:20.290Z,23.10
2023-02-11T03:55:53.128Z,23.40
2023-02-11T03:56:25.897Z,23.60
2023-02-11T03:56:58.573Z,23.50
2023-02-11T03:57:31.240Z,23.70
2023-02-11T03:58:03.937Z,24.00
2023-02-11T03:58:36.595Z,24.10
2023-02-11T03:59:09.269Z,24.10
2023-02-11T03:59:41.936Z,24.50
2023-02-11T04:00:14.615Z,23.80
2023-02-11T04:00:47.360Z,23.70
2023-02-11T04:01:20.090Z,24.40
2023-02-11T04:01:52.787Z,24.60
2023-02-11T04:02:25.436Z,24.10
2023-02-11T04:02:58.154Z,24.50
2023-02-11T04:03:30.839Z,24.00
2023-02-11T04:04:03.514Z,24.30
2023-02-11T04:04:36.187Z,24.10
2023-02-11T04:05:08.859Z,24.60
2023-02-11T04:05:41.528Z,23.60
2023-02-11T04:06:14.234Z,23.70
2023-02-11T04:06:46.895Z,24.60
2023-02-11T04:07:19.572Z,24.90
2023-02-11T04:07:52.249Z,24.40
2023-02-11T04:08:24.936Z,25.30
2023-02-11T04:08:57.584Z,24.90
2023-02-11T04:09:30.250Z,24.50
2023-02-11T04:10:02.926Z,24.70
2023-02-11T04:10:35.592Z,23.70
2023-02-11T04:11:08.274Z,24.50
2023-02-11T04:11:40.939Z,24.00
2023-02-11T04:12:13.607Z,24.80
2023-02-11T04:12:46.273Z,25.00
2023-02-11T04:13:18.950Z,24.90
2023-02-11T04:13:51.612Z,24.50
2023-02-11T04:14:24.296Z,24.40
2023-02-11T04:14:57.016Z,25.10
2023-02-11T04:15:29.684Z,24.20
2023-02-11T04:16:02.413Z,25.40
2023-02-11T04:16:35.116Z,25.50
2023-02-11T04:17:07.854Z,25.20
2023-02-11T04:17:40.512Z,24.10
2023-02-11T04:18:13.177Z,24.70
2023-02-11T04:18:45.846Z,25.00
2023-02-11T04:19:18.515Z,24.70
2023-02-11T04:19:51.192Z,24.50
2023-02-11T04:20:23.870Z,24.70
2023-02-11T04:20:56.561Z,25.60
2023-02-11T04:21:29.246Z,23.80
2023-02-11T04:22:01.907Z,24.70
2023-02-11T04:22:34.583Z,24.60
2023-02-11T04:23:07.255Z,25.00
2023-02-11T04:23:39.998Z,24.30
2023-02-11T04:24:12.662Z,24.70
2023-02-11T04:24:45.320Z,24.90
2023-02-11T04:25:18.170Z,24.40
2023-02-11T04:25:51.315Z,24.80
2023-02-11T04:26:17.567Z,26.20
2023-02-11T04:26:50.240Z,24.80
2023-02-11T04:27:22.903Z,24.50
2023-02-11T04:27:55.656Z,24.80
2023-02-11T04:28:28.367Z,24.20
2023-02-11T04:29:01.028Z,24.70
2023-02-11T04:29:33.697Z,24.70
2023-02-11T04:30:06.372Z,24.30
2023-02-11T04:30:39.038Z,24.30
2023-02-11T04:31:11.726Z,24.60
2023-02-11T04:31:44.459Z,25.40
2023-02-11T04:32:17.239Z,24.70
2023-02-11T04:32:49.885Z,25.40
2023-02-11T04:33:22.549Z,24.90
2023-02-11T04:33:55.226Z,24.70
2023-02-11T04:34:27.889Z,24.90
2023-02-11T04:35:00.577Z,24.70
2023-02-11T04:35:33.234Z,25.20
2023-02-11T04:36:05.907Z,24.30
2023-02-11T04:36:38.584Z,25.80
2023-02-11T04:37:11.410Z,25.40
2023-02-11T04:37:44.048Z,25.50
2023-02-11T04:38:16.711Z,24.90
2023-02-11T04:38:49.414Z,25.10
2023-02-11T04:39:22.060Z,24.70
2023-02-11T04:39:54.729Z,25.50
2023-02-11T04:40:27.407Z,25.80
2023-02-11T04:41:00.122Z,24.70
2023-02-11T04:41:32.762Z,25.70
2023-02-11T04:42:05.443Z,26.20
2023-02-11T04:42:38.144Z,25.50
2023-02-11T04:43:10.828Z,25.40
2023-02-11T04:43:43.512Z,26.40
2023-02-11T04:44:10.895Z,25.20
2023-02-11T04:44:38.713Z,25.60
2023-02-11T04:45:08.716Z,25.20
2023-02-11T04:45:36.356Z,25.70
2023-02-11T04:46:00.279Z,25.80
2023-02-11T04:46:29.242Z,26.00
2023-02-11T04:47:01.949Z,25.30
2023-02-11T04:47:34.600Z,25.60
2023-02-11T04:48:05.693Z,25.60
2023-02-11T04:48:32.621Z,25.40
2023-02-11T04:49:05.279Z,25.70
2023-02-11T04:49:32.183Z,25.00
2023-02-11T04:50:06.760Z,25.30
2023-02-11T04:50:40.725Z,26.00
2023-02-11T04:51:08.483Z,25.80
2023-02-11T04:51:35.367Z,25.90
2023-02-11T04:52:08.058Z,26.30
2023-02-11T04:52:34.966Z,25.10
2023-02-11T04:53:07.653Z,26.70
2023-02-11T04:53:39.211Z,25.50
2023-02-11T04:54:06.436Z,26.30
2023-02-11T04:54:36.841Z,26.10
2023-02-11T04:55:09.532Z,26.80
2023-02-11T04:55:39.475Z,26.60
2023-02-11T04:56:06.224Z,26.00
2023-02-11T04:56:35.385Z,26.00
2023-02-11T04:57:08.052Z,26.50
2023-02-11T04:57:40.710Z,26.00
2023-02-11T04:58:13.383Z,26.80
2023-02-11T04:58:46.069Z,26.30
2023-02-11T04:59:18.743Z,26.60
2023-02-11T04:59:51.404Z,25.50
2023-02-11T05:00:24.086Z,27.30
2023-02-11T05:00:56.795Z,27.00
2023-02-11T05:01:29.600Z,26.40
2023-02-11T05:02:02.248Z,26.80
2023-02-11T05:02:34.922Z,26.50
2023-02-11T05:03:07.598Z,27.10
2023-02-11T05:03:40.270Z,26.10
2023-02-11T05:04:12.996Z,26.20
2023-02-11T05:04:45.673Z,27.40
2023-02-11T05:05:18.342Z,26.60
2023-02-11T05:05:51.309Z,27.10
2023-02-11T05:06:17.625Z,26.80
2023-02-11T05:06:50.308Z,27.70
2023-02-11T05:07:22.982Z,26.80
2023-02-11T05:07:55.649Z,27.00
2023-02-11T05:08:28.318Z,27.10
2023-02-11T05:09:00.980Z,27.10
2023-02-11T05:09:33.674Z,27.40
2023-02-11T05:10:06.321Z,28.20
2023-02-11T05:10:38.993Z,27.50
2023-02-11T05:11:11.675Z,27.80
2023-02-11T05:11:44.349Z,28.40
2023-02-11T05:12:17.009Z,27.30
2023-02-11T05:12:49.677Z,27.80
2023-02-11T05:13:22.342Z,27.10
2023-02-11T05:13:55.024Z,28.60
2023-02-11T05:14:27.677Z,28.20
2023-02-11T05:15:00.342Z,27.70
2023-02-11T05:15:33.008Z,28.00
2023-02-11T05:16:05.694Z,28.80
2023-02-11T05:16:38.436Z,28.40
2023-02-11T05:17:11.110Z,28.90
2023-02-11T05:17:43.784Z,28.10
2023-02-11T05:18:16.489Z,28.00
2023-02-11T05:18:51.465Z,27.80
2023-02-11T05:19:18.645Z,29.20
2023-02-11T05:19:51.310Z,28.40
2023-02-11T05:20:24.021Z,28.00
2023-02-11T05:20:52.862Z,28.80
2023-02-11T05:21:24.970Z,28.70
2023-02-11T05:22:02.518Z,27.90
2023-02-11T05:22:27.721Z,28.10
2023-02-11T05:22:54.726Z,28.60
2023-02-11T05:23:26.801Z,28.30
2023-02-11T05:23:58.923Z,29.30
2023-02-11T05:24:25.078Z,28.80
2023-02-11T05:24:57.771Z,28.20
2023-02-11T05:25:30.430Z,28.40
2023-02-11T05:25:57.295Z,28.60
2023-02-11T05:26:30.001Z,28.50
2023-02-11T05:26:56.852Z,28.00
2023-02-11T05:27:23.885Z,28.60
2023-02-11T05:27:50.783Z,30.00
2023-02-11T05:28:23.484Z,29.50
2023-02-11T05:28:56.160Z,29.90
2023-02-11T05:29:28.843Z,28.20
2023-02-11T05:30:01.524Z,28.60
2023-02-11T05:30:35.302Z,29.00
2023-02-11T05:31:01.711Z,29.70
2023-02-11T05:31:29.768Z,29.00
2023-02-11T05:32:02.461Z,30.20
2023-02-11T05:32:35.138Z,29.00
2023-02-11T05:33:07.226Z,29.00
2023-02-11T05:33:33.413Z,29.40
2023-02-11T05:34:04.481Z,29.30
2023-02-11T05:34:37.158Z,29.00
2023-02-11T05:35:09.828Z,30.30
2023-02-11T05:35:42.525Z,29.90
2023-02-11T05:36:15.208Z,29.50
2023-02-11T05:36:47.883Z,29.70
2023-02-11T05:37:20.593Z,29.00
2023-02-11T05:37:53.309Z,29.30
2023-02-11T05:38:25.975Z,29.80
2023-02-11T05:38:58.650Z,29.70
2023-02-11T05:39:31.316Z,28.70
2023-02-11T05:40:04.015Z,29.60
2023-02-11T05:40:36.668Z,30.10
2023-02-11T05:41:07.743Z,29.60
2023-02-11T05:41:40.446Z,29.30
2023-02-11T05:42:13.105Z,29.20
2023-02-11T05:42:45.779Z,28.90
2023-02-11T05:43:18.450Z,29.60
2023-02-11T05:43:51.109Z,29.70
2023-02-11T05:44:23.786Z,30.20
2023-02-11T05:44:56.454Z,29.70
2023-02-11T05:45:29.130Z,29.90
2023-02-11T05:46:01.853Z,29.50
2023-02-11T05:46:34.587Z,29.50
2023-02-11T05:47:07.248Z,28.60
2023-02-11T05:47:39.926Z,29.50
2023-02-11T05:48:12.601Z,28.60
2023-02-11T05:48:45.281Z,29.50
2023-02-11T05:49:16.360Z,30.00
2023-02-11T05:49:49.037Z,28.80
2023-02-11T05:50:21.701Z,29.80
2023-02-11T05:50:54.368Z,30.00
2023-02-11T05:51:27.076Z,29.80
2023-02-11T05:51:59.756Z,30.40
2023-02-11T05:52:32.434Z,29.30
2023-02-11T05:53:05.389Z,29.50
2023-02-11T05:53:38.176Z,29.40
2023-02-11T05:54:10.852Z,29.80
2023-02-11T05:54:43.511Z,29.50
2023-02-11T05:55:16.213Z,30.50
2023-02-11T05:55:49.236Z,30.80
2023-02-11T05:56:16.351Z,30.60
2023-02-11T05:58:06.674Z,29.90
2023-02-11T05:58:39.558Z,30.60
2023-02-11T05:59:12.552Z,30.60
2023-02-11T05:59:39.694Z,30.60
2023-02-11T06:00:06.652Z,30.40
2023-02-11T06:00:39.350Z,30.40
2023-02-11T06:01:07.043Z,30.30
2023-02-11T06:01:36.363Z,30.00
2023-02-11T06:02:12.118Z,30.90
2023-02-11T06:02:39.103Z,29.70
2023-02-11T06:03:05.997Z,31.70
2023-02-11T06:03:32.805Z,29.90
2023-02-11T06:04:05.467Z,30.60
2023-02-11T06:04:38.151Z,29.90
2023-02-11T06:05:10.818Z,30.60
2023-02-11T06:05:44.054Z,31.10
2023-02-11T06:06:10.242Z,30.50
2023-02-11T06:06:42.914Z,30.60
2023-02-11T06:07:16.067Z,32.00
2023-02-11T06:07:42.240Z,30.50
2023-02-11T06:08:14.920Z,30.50
2023-02-11T06:08:42.146Z,31.30
2023-02-11T06:09:14.832Z,30.70
2023-02-11T06:09:47.494Z,30.00
2023-02-11T06:10:20.186Z,31.00
2023-02-11T06:10:52.829Z,30.80
2023-02-11T06:11:25.500Z,30.80
2023-02-11T06:11:58.203Z,30.90
2023-02-11T06:12:30.860Z,30.50
2023-02-11T06:13:03.526Z,31.60
2023-02-11T06:13:36.232Z,30.60
2023-02-11T06:14:08.876Z,31.50
2023-02-11T06:14:41.560Z,31.20
2023-02-11T06:15:14.282Z,32.10
2023-02-11T06:15:47.028Z,31.20
2023-02-11T06:16:19.777Z,31.70
2023-02-11T06:16:52.469Z,31.00
2023-02-11T06:17:25.173Z,31.50
2023-02-11T06:17:57.809Z,31.50
2023-02-11T06:18:30.478Z,30.30
2023-02-11T06:19:03.145Z,32.10
2023-02-11T06:19:35.824Z,31.10
2023-02-11T06:20:08.473Z,31.70
2023-02-11T06:20:41.137Z,31.10
2023-02-11T06:21:13.810Z,30.50
2023-02-11T06:21:46.468Z,31.50
2023-02-11T06:22:19.156Z,32.00
2023-02-11T06:22:51.817Z,31.50
2023-02-11T06:23:24.520Z,32.20
2023-02-11T06:23:57.150Z,30.70
2023-02-11T06:24:51.353Z,32.00
2023-02-11T06:25:02.456Z,31.70
2023-02-11T06:25:28.715Z,32.00
2023-02-11T06:26:01.356Z,32.60
2023-02-11T06:26:34.037Z,32.20
2023-02-11T06:27:06.707Z,31.90
2023-02-11T06:27:39.405Z,32.00
2023-02-11T06:28:12.188Z,32.60
2023-02-11T06:28:44.955Z,31.90
2023-02-11T06:29:17.689Z,32.70
2023-02-11T06:29:50.392Z,32.30
2023-02-11T06:30:23.068Z,32.20
2023-02-11T06:30:55.773Z,33.10
2023-02-11T06:31:28.548Z,33.70
2023-02-11T06:32:01.351Z,33.70
2023-02-11T06:32:46.141Z,32.80
2023-02-11T06:33:06.117Z,33.90
2023-02-11T06:33:32.281Z,34.20
2023-02-11T06:34:04.953Z,33.20
2023-02-11T06:34:37.621Z,33.30
2023-02-11T06:35:12.081Z,32.50
2023-02-11T06:35:38.602Z,32.10
2023-02-11T06:36:11.265Z,33.00
2023-02-11T06:36:43.940Z,33.00
2023-02-11T06:37:16.610Z,34.80
2023-02-11T06:37:49.317Z,33.40
2023-02-11T06:38:21.982Z,33.20
2023-02-11T06:38:54.651Z,33.70
2023-02-11T06:39:27.321Z,34.90
2023-02-11T06:39:59.989Z,34.50
2023-02-11T06:40:32.695Z,33.90
2023-02-11T06:41:05.329Z,33.30
2023-02-11T06:41:37.995Z,34.30
2023-02-11T06:42:10.735Z,34.70
2023-02-11T06:42:43.374Z,34.60
2023-02-11T06:43:16.028Z,33.50
2023-02-11T06:43:48.736Z,34.00
2023-02-11T06:44:21.382Z,33.40
2023-02-11T06:44:54.057Z,33.10
2023-02-11T06:45:26.711Z,34.10
2023-02-11T06:45:59.397Z,34.20
2023-02-11T06:46:32.212Z,33.70
2023-02-11T06:47:04.876Z,33.90
2023-02-11T06:47:37.588Z,34.10
2023-02-11T06:48:10.234Z,34.00
2023-02-11T06:48:44.859Z,34.80
2023-02-11T06:49:11.200Z,34.40
2023-02-11T06:49:43.879Z,34.40
2023-02-11T06:50:16.572Z,33.20
2023-02-11T06:50:49.233Z,33.90
2023-02-11T06:51:21.937Z,34.70
2023-02-11T06:51:54.600Z,34.80
2023-02-11T06:52:27.302Z,35.50
2023-02-11T06:52:59.978Z,34.50
2023-02-11T06:53:32.648Z,34.50
2023-02-11T06:54:05.332Z,35.00
2023-02-11T06:54:38.012Z,34.10
2023-02-11T06:55:10.678Z,33.80
2023-02-11T06:55:43.378Z,34.30
2023-02-11T06:56:16.020Z,34.70